sensor_id;sensor_type;location;lat;lon;timestamp;P1;durP1;ratioP1;P2;durP2;ratioP2
15563;SDS011;7883;52.554;13.364;2023-02-25T00:01:41;13.10;;;2.95;;
15563;SDS011;7883;52.554;13.364;2023-02-25T00:04:09;16.83;;;3.28;;
15563;SDS011;7883;52.554;13.364;2023-02-25T00:06:35;14.80;;;2.65;;
15563;SDS011;7883;52.554;13.364;2023-02-25T00:09:03;13.10;;;2.75;;
15563;SDS011;7883;52.554;13.364;2023-02-25T00:11:31;11.98;;;2.85;;
15563;SDS011;7883;52.554;13.364;2023-02-25T00:13:58;13.45;;;2.97;;
15563;SDS011;7883;52.554;13.364;2023-02-25T00:16:26;15.77;;;3.13;;
15563;SDS011;7883;52.554;13.364;2023-02-25T00:18:54;13.80;;;2.58;;
15563;SDS011;7883;52.554;13.364;2023-02-25T00:21:21;12.85;;;2.30;;
15563;SDS011;7883;52.554;13.364;2023-02-25T00:23:49;2.33;;;1.10;;
15563;SDS011;7883;52.554;13.364;2023-02-25T00:26:18;4.63;;;1.08;;
15563;SDS011;7883;52.554;13.364;2023-02-25T00:28:47;2.97;;;1.00;;
15563;SDS011;7883;52.554;13.364;2023-02-25T00:31:15;3.15;;;0.82;;
15563;SDS011;7883;52.554;13.364;2023-02-25T00:33:44;3.17;;;0.85;;
15563;SDS011;7883;52.554;13.364;2023-02-25T00:36:14;5.32;;;1.75;;
15563;SDS011;7883;52.554;13.364;2023-02-25T00:38:44;4.45;;;0.98;;
15563;SDS011;7883;52.554;13.364;2023-02-25T00:41:13;5.07;;;1.92;;
15563;SDS011;7883;52.554;13.364;2023-02-25T00:43:41;6.10;;;1.25;;
15563;SDS011;7883;52.554;13.364;2023-02-25T00:46:10;3.08;;;0.93;;
15563;SDS011;7883;52.554;13.364;2023-02-25T00:48:37;3.47;;;0.98;;
15563;SDS011;7883;52.554;13.364;2023-02-25T00:51:05;3.90;;;1.17;;
15563;SDS011;7883;52.554;13.364;2023-02-25T00:53:33;3.25;;;1.17;;
15563;SDS011;7883;52.554;13.364;2023-02-25T00:56:02;6.82;;;1.80;;
15563;SDS011;7883;52.554;13.364;2023-02-25T00:58:30;3.63;;;1.33;;
15563;SDS011;7883;52.554;13.364;2023-02-25T01:00:59;8.73;;;2.20;;
15563;SDS011;7883;52.554;13.364;2023-02-25T01:03:28;5.68;;;1.70;;
15563;SDS011;7883;52.554;13.364;2023-02-25T01:05:55;10.20;;;1.80;;
15563;SDS011;7883;52.554;13.364;2023-02-25T01:08:21;5.32;;;1.40;;
15563;SDS011;7883;52.554;13.364;2023-02-25T01:10:49;7.35;;;1.80;;
15563;SDS011;7883;52.554;13.364;2023-02-25T01:13:19;7.32;;;1.65;;
15563;SDS011;7883;52.554;13.364;2023-02-25T01:19:07;11.52;;;2.47;;
15563;SDS011;7883;52.554;13.364;2023-02-25T01:21:37;7.70;;;1.60;;
15563;SDS011;7883;52.554;13.364;2023-02-25T01:24:07;8.35;;;1.50;;
15563;SDS011;7883;52.554;13.364;2023-02-25T01:26:37;4.82;;;1.30;;
15563;SDS011;7883;52.554;13.364;2023-02-25T01:29:06;5.88;;;1.30;;
15563;SDS011;7883;52.554;13.364;2023-02-25T01:31:34;6.10;;;1.55;;
15563;SDS011;7883;52.554;13.364;2023-02-25T01:34:02;6.85;;;1.42;;
15563;SDS011;7883;52.554;13.364;2023-02-25T01:36:32;4.30;;;1.55;;
15563;SDS011;7883;52.554;13.364;2023-02-25T01:39:00;5.47;;;2.20;;
15563;SDS011;7883;52.554;13.364;2023-02-25T01:41:28;5.35;;;1.42;;
15563;SDS011;7883;52.554;13.364;2023-02-25T01:44:04;9.60;;;1.95;;
15563;SDS011;7883;52.554;13.364;2023-02-25T01:46:32;8.15;;;1.67;;
15563;SDS011;7883;52.554;13.364;2023-02-25T01:49:00;8.65;;;1.90;;
15563;SDS011;7883;52.554;13.364;2023-02-25T01:51:28;10.32;;;2.05;;
15563;SDS011;7883;52.554;13.364;2023-02-25T01:53:58;6.13;;;2.10;;
15563;SDS011;7883;52.554;13.364;2023-02-25T01:56:29;8.45;;;1.95;;
15563;SDS011;7883;52.554;13.364;2023-02-25T01:58:56;8.20;;;2.40;;
15563;SDS011;7883;52.554;13.364;2023-02-25T02:01:25;10.70;;;1.98;;
15563;SDS011;7883;52.554;13.364;2023-02-25T02:03:58;12.90;;;2.50;;
15563;SDS011;7883;52.554;13.364;2023-02-25T02:06:30;5.60;;;1.88;;
15563;SDS011;7883;52.554;13.364;2023-02-25T02:09:01;6.13;;;1.80;;
15563;SDS011;7883;52.554;13.364;2023-02-25T02:11:30;8.77;;;2.10;;
15563;SDS011;7883;52.554;13.364;2023-02-25T02:13:57;6.38;;;1.75;;
15563;SDS011;7883;52.554;13.364;2023-02-25T02:16:34;7.03;;;2.25;;
15563;SDS011;7883;52.554;13.364;2023-02-25T02:19:14;4.07;;;1.42;;
15563;SDS011;7883;52.554;13.364;2023-02-25T02:21:53;4.57;;;1.70;;
15563;SDS011;7883;52.554;13.364;2023-02-25T02:27:19;7.00;;;1.80;;
15563;SDS011;7883;52.554;13.364;2023-02-25T02:29:55;3.97;;;1.55;;
15563;SDS011;7883;52.554;13.364;2023-02-25T02:32:38;3.15;;;1.30;;
15563;SDS011;7883;52.554;13.364;2023-02-25T02:35:13;3.60;;;1.80;;
15563;SDS011;7883;52.554;13.364;2023-02-25T02:37:47;4.97;;;1.40;;
15563;SDS011;7883;52.554;13.364;2023-02-25T02:40:26;2.45;;;1.30;;
15563;SDS011;7883;52.554;13.364;2023-02-25T02:43:06;1.65;;;1.17;;
15563;SDS011;7883;52.554;13.364;2023-02-25T02:45:40;4.75;;;1.48;;
15563;SDS011;7883;52.554;13.364;2023-02-25T02:48:14;3.15;;;1.38;;
15563;SDS011;7883;52.554;13.364;2023-02-25T02:50:45;3.08;;;1.70;;
15563;SDS011;7883;52.554;13.364;2023-02-25T02:53:17;1.90;;;1.30;;
15563;SDS011;7883;52.554;13.364;2023-02-25T02:55:48;4.75;;;1.50;;
15563;SDS011;7883;52.554;13.364;2023-02-25T02:58:18;3.40;;;1.45;;
15563;SDS011;7883;52.554;13.364;2023-02-25T03:00:52;4.47;;;1.30;;
15563;SDS011;7883;52.554;13.364;2023-02-25T03:03:27;5.00;;;1.50;;
15563;SDS011;7883;52.554;13.364;2023-02-25T03:06:01;3.25;;;1.30;;
15563;SDS011;7883;52.554;13.364;2023-02-25T03:08:31;1.33;;;1.20;;
15563;SDS011;7883;52.554;13.364;2023-02-25T03:11:03;1.15;;;1.05;;
15563;SDS011;7883;52.554;13.364;2023-02-25T03:13:30;1.98;;;1.38;;
15563;SDS011;7883;52.554;13.364;2023-02-25T03:15:57;1.95;;;1.10;;
15563;SDS011;7883;52.554;13.364;2023-02-25T03:18:30;2.22;;;1.20;;
15563;SDS011;7883;52.554;13.364;2023-02-25T03:21:01;1.77;;;1.30;;
15563;SDS011;7883;52.554;13.364;2023-02-25T03:23:34;2.78;;;1.33;;
15563;SDS011;7883;52.554;13.364;2023-02-25T03:26:08;1.42;;;1.08;;
15563;SDS011;7883;52.554;13.364;2023-02-25T03:28:39;3.95;;;1.60;;
15563;SDS011;7883;52.554;13.364;2023-02-25T03:31:11;3.40;;;1.58;;
15563;SDS011;7883;52.554;13.364;2023-02-25T03:33:47;3.35;;;1.20;;
15563;SDS011;7883;52.554;13.364;2023-02-25T03:36:18;1.88;;;1.27;;
15563;SDS011;7883;52.554;13.364;2023-02-25T03:38:50;1.70;;;1.10;;
15563;SDS011;7883;52.554;13.364;2023-02-25T03:41:20;1.83;;;0.98;;
15563;SDS011;7883;52.554;13.364;2023-02-25T03:43:53;1.05;;;0.95;;
15563;SDS011;7883;52.554;13.364;2023-02-25T03:46:21;2.45;;;1.05;;
15563;SDS011;7883;52.554;13.364;2023-02-25T03:48:51;2.95;;;1.00;;
15563;SDS011;7883;52.554;13.364;2023-02-25T03:51:20;3.33;;;1.20;;
15563;SDS011;7883;52.554;13.364;2023-02-25T03:53:52;1.95;;;1.25;;
15563;SDS011;7883;52.554;13.364;2023-02-25T03:56:19;1.55;;;1.20;;
15563;SDS011;7883;52.554;13.364;2023-02-25T03:58:47;1.05;;;0.88;;
15563;SDS011;7883;52.554;13.364;2023-02-25T04:01:14;1.83;;;0.95;;
15563;SDS011;7883;52.554;13.364;2023-02-25T04:03:44;2.00;;;0.93;;
15563;SDS011;7883;52.554;13.364;2023-02-25T04:06:12;0.77;;;0.77;;
15563;SDS011;7883;52.554;13.364;2023-02-25T04:08:40;1.08;;;0.68;;
15563;SDS011;7883;52.554;13.364;2023-02-25T04:11:07;1.05;;;0.88;;
15563;SDS011;7883;52.554;13.364;2023-02-25T04:13:34;0.80;;;0.80;;
15563;SDS011;7883;52.554;13.364;2023-02-25T04:16:01;0.63;;;0.63;;
15563;SDS011;7883;52.554;13.364;2023-02-25T04:18:28;1.27;;;0.70;;
15563;SDS011;7883;52.554;13.364;2023-02-25T04:20:55;1.05;;;0.77;;
15563;SDS011;7883;52.554;13.364;2023-02-25T04:23:23;0.60;;;0.60;;
15563;SDS011;7883;52.554;13.364;2023-02-25T04:25:50;0.43;;;0.43;;
15563;SDS011;7883;52.554;13.364;2023-02-25T04:28:17;0.70;;;0.70;;
15563;SDS011;7883;52.554;13.364;2023-02-25T04:30:44;1.65;;;1.13;;
15563;SDS011;7883;52.554;13.364;2023-02-25T04:33:11;0.88;;;0.75;;
15563;SDS011;7883;52.554;13.364;2023-02-25T04:35:38;0.60;;;0.60;;
15563;SDS011;7883;52.554;13.364;2023-02-25T04:38:05;1.17;;;0.70;;
15563;SDS011;7883;52.554;13.364;2023-02-25T04:40:33;1.88;;;0.85;;
15563;SDS011;7883;52.554;13.364;2023-02-25T04:43:01;1.95;;;0.60;;
15563;SDS011;7883;52.554;13.364;2023-02-25T04:45:28;0.70;;;0.70;;
15563;SDS011;7883;52.554;13.364;2023-02-25T04:47:55;1.45;;;0.82;;
15563;SDS011;7883;52.554;13.364;2023-02-25T04:50:22;0.93;;;0.77;;
15563;SDS011;7883;52.554;13.364;2023-02-25T04:52:49;0.30;;;0.30;;
15563;SDS011;7883;52.554;13.364;2023-02-25T04:55:17;1.67;;;0.70;;
15563;SDS011;7883;52.554;13.364;2023-02-25T04:57:45;1.50;;;0.70;;
15563;SDS011;7883;52.554;13.364;2023-02-25T05:00:13;0.85;;;0.50;;
15563;SDS011;7883;52.554;13.364;2023-02-25T05:02:43;1.77;;;0.82;;
15563;SDS011;7883;52.554;13.364;2023-02-25T05:05:11;1.52;;;0.60;;
15563;SDS011;7883;52.554;13.364;2023-02-25T05:07:38;1.23;;;0.80;;
15563;SDS011;7883;52.554;13.364;2023-02-25T05:10:07;0.82;;;0.60;;
15563;SDS011;7883;52.554;13.364;2023-02-25T05:12:35;0.88;;;0.70;;
15563;SDS011;7883;52.554;13.364;2023-02-25T05:15:04;0.60;;;0.60;;
15563;SDS011;7883;52.554;13.364;2023-02-25T05:17:32;2.28;;;0.68;;
15563;SDS011;7883;52.554;13.364;2023-02-25T05:20:00;1.23;;;0.60;;
15563;SDS011;7883;52.554;13.364;2023-02-25T05:22:30;0.90;;;0.52;;
15563;SDS011;7883;52.554;13.364;2023-02-25T05:24:57;2.05;;;0.70;;
15563;SDS011;7883;52.554;13.364;2023-02-25T05:27:24;0.60;;;0.60;;
15563;SDS011;7883;52.554;13.364;2023-02-25T05:29:51;1.95;;;0.80;;
15563;SDS011;7883;52.554;13.364;2023-02-25T05:32:20;1.50;;;0.70;;
15563;SDS011;7883;52.554;13.364;2023-02-25T05:34:47;2.25;;;0.70;;
15563;SDS011;7883;52.554;13.364;2023-02-25T05:37:14;0.80;;;0.68;;
15563;SDS011;7883;52.554;13.364;2023-02-25T05:39:40;1.27;;;0.80;;
15563;SDS011;7883;52.554;13.364;2023-02-25T05:42:07;0.60;;;0.60;;
15563;SDS011;7883;52.554;13.364;2023-02-25T05:44:35;1.90;;;0.90;;
15563;SDS011;7883;52.554;13.364;2023-02-25T05:47:02;0.88;;;0.80;;
15563;SDS011;7883;52.554;13.364;2023-02-25T05:49:30;2.95;;;0.80;;
15563;SDS011;7883;52.554;13.364;2023-02-25T05:51:57;1.40;;;0.70;;
15563;SDS011;7883;52.554;13.364;2023-02-25T05:54:24;2.60;;;1.08;;
15563;SDS011;7883;52.554;13.364;2023-02-25T05:56:51;0.95;;;0.82;;
15563;SDS011;7883;52.554;13.364;2023-02-25T05:59:18;2.75;;;0.90;;
15563;SDS011;7883;52.554;13.364;2023-02-25T06:01:45;0.98;;;0.82;;
15563;SDS011;7883;52.554;13.364;2023-02-25T06:04:12;2.22;;;1.05;;
15563;SDS011;7883;52.554;13.364;2023-02-25T06:06:40;2.45;;;0.75;;
15563;SDS011;7883;52.554;13.364;2023-02-25T06:09:11;1.58;;;0.80;;
15563;SDS011;7883;52.554;13.364;2023-02-25T06:11:43;2.60;;;1.08;;
15563;SDS011;7883;52.554;13.364;2023-02-25T06:14:11;1.23;;;0.90;;
15563;SDS011;7883;52.554;13.364;2023-02-25T06:16:40;1.63;;;0.73;;
15563;SDS011;7883;52.554;13.364;2023-02-25T06:19:07;2.20;;;0.80;;
15563;SDS011;7883;52.554;13.364;2023-02-25T06:21:36;1.33;;;1.00;;
15563;SDS011;7883;52.554;13.364;2023-02-25T06:24:04;0.77;;;0.77;;
15563;SDS011;7883;52.554;13.364;2023-02-25T06:26:32;0.93;;;0.82;;
15563;SDS011;7883;52.554;13.364;2023-02-25T06:28:59;1.88;;;0.82;;
15563;SDS011;7883;52.554;13.364;2023-02-25T06:31:26;2.55;;;1.02;;
15563;SDS011;7883;52.554;13.364;2023-02-25T06:33:53;0.80;;;0.80;;
15563;SDS011;7883;52.554;13.364;2023-02-25T06:36:20;0.75;;;0.63;;
15563;SDS011;7883;52.554;13.364;2023-02-25T06:38:47;1.45;;;0.85;;
15563;SDS011;7883;52.554;13.364;2023-02-25T06:41:16;2.92;;;0.93;;
15563;SDS011;7883;52.554;13.364;2023-02-25T06:43:45;1.60;;;0.82;;
15563;SDS011;7883;52.554;13.364;2023-02-25T06:46:16;1.98;;;0.98;;
15563;SDS011;7883;52.554;13.364;2023-02-25T06:48:44;1.88;;;0.98;;
15563;SDS011;7883;52.554;13.364;2023-02-25T06:51:11;1.00;;;0.90;;
15563;SDS011;7883;52.554;13.364;2023-02-25T06:53:39;2.20;;;1.02;;
15563;SDS011;7883;52.554;13.364;2023-02-25T06:56:08;0.57;;;0.57;;
15563;SDS011;7883;52.554;13.364;2023-02-25T06:58:38;1.45;;;1.00;;
15563;SDS011;7883;52.554;13.364;2023-02-25T07:01:06;1.38;;;0.88;;
15563;SDS011;7883;52.554;13.364;2023-02-25T07:03:33;2.53;;;1.00;;
15563;SDS011;7883;52.554;13.364;2023-02-25T07:06:01;2.22;;;0.80;;
15563;SDS011;7883;52.554;13.364;2023-02-25T07:08:28;2.75;;;0.85;;
15563;SDS011;7883;52.554;13.364;2023-02-25T07:10:56;1.42;;;0.70;;
15563;SDS011;7883;52.554;13.364;2023-02-25T07:13:35;4.28;;;0.90;;
15563;SDS011;7883;52.554;13.364;2023-02-25T07:16:04;0.82;;;0.80;;
15563;SDS011;7883;52.554;13.364;2023-02-25T07:18:31;2.33;;;0.98;;
15563;SDS011;7883;52.554;13.364;2023-02-25T07:20:59;1.52;;;0.95;;
15563;SDS011;7883;52.554;13.364;2023-02-25T07:23:26;1.77;;;0.90;;
15563;SDS011;7883;52.554;13.364;2023-02-25T07:25:53;1.20;;;1.00;;
15563;SDS011;7883;52.554;13.364;2023-02-25T07:28:20;4.28;;;1.30;;
15563;SDS011;7883;52.554;13.364;2023-02-25T07:30:47;4.00;;;1.30;;
15563;SDS011;7883;52.554;13.364;2023-02-25T07:33:15;0.90;;;0.77;;
15563;SDS011;7883;52.554;13.364;2023-02-25T07:35:42;2.53;;;1.00;;
15563;SDS011;7883;52.554;13.364;2023-02-25T07:38:09;3.47;;;1.80;;
15563;SDS011;7883;52.554;13.364;2023-02-25T07:40:37;1.23;;;0.93;;
15563;SDS011;7883;52.554;13.364;2023-02-25T07:43:05;1.40;;;0.80;;
15563;SDS011;7883;52.554;13.364;2023-02-25T07:45:32;2.15;;;1.10;;
15563;SDS011;7883;52.554;13.364;2023-02-25T07:47:59;1.13;;;0.90;;
15563;SDS011;7883;52.554;13.364;2023-02-25T07:50:27;1.52;;;1.05;;
15563;SDS011;7883;52.554;13.364;2023-02-25T07:52:55;1.00;;;0.80;;
15563;SDS011;7883;52.554;13.364;2023-02-25T07:55:23;1.10;;;0.85;;
15563;SDS011;7883;52.554;13.364;2023-02-25T07:57:50;0.85;;;0.70;;
15563;SDS011;7883;52.554;13.364;2023-02-25T08:00:17;1.25;;;0.80;;
15563;SDS011;7883;52.554;13.364;2023-02-25T08:02:44;2.00;;;1.20;;
15563;SDS011;7883;52.554;13.364;2023-02-25T08:05:11;1.33;;;0.80;;
15563;SDS011;7883;52.554;13.364;2023-02-25T08:07:39;0.88;;;0.80;;
15563;SDS011;7883;52.554;13.364;2023-02-25T08:10:07;1.15;;;0.90;;
15563;SDS011;7883;52.554;13.364;2023-02-25T08:12:34;0.82;;;0.82;;
15563;SDS011;7883;52.554;13.364;2023-02-25T08:15:02;1.42;;;0.90;;
15563;SDS011;7883;52.554;13.364;2023-02-25T08:17:32;1.42;;;0.75;;
15563;SDS011;7883;52.554;13.364;2023-02-25T08:19:59;0.95;;;0.70;;
15563;SDS011;7883;52.554;13.364;2023-02-25T08:22:26;0.73;;;0.68;;
15563;SDS011;7883;52.554;13.364;2023-02-25T08:24:55;1.13;;;0.50;;
15563;SDS011;7883;52.554;13.364;2023-02-25T08:27:22;0.70;;;0.70;;
15563;SDS011;7883;52.554;13.364;2023-02-25T08:29:49;0.63;;;0.57;;
15563;SDS011;7883;52.554;13.364;2023-02-25T08:32:16;0.82;;;0.70;;
15563;SDS011;7883;52.554;13.364;2023-02-25T08:34:44;5.35;;;0.90;;
15563;SDS011;7883;52.554;13.364;2023-02-25T08:37:11;3.60;;;1.15;;
15563;SDS011;7883;52.554;13.364;2023-02-25T08:39:37;1.10;;;0.75;;
15563;SDS011;7883;52.554;13.364;2023-02-25T08:42:06;2.60;;;0.60;;
15563;SDS011;7883;52.554;13.364;2023-02-25T08:44:33;2.78;;;0.70;;
15563;SDS011;7883;52.554;13.364;2023-02-25T08:47:01;1.27;;;0.70;;
15563;SDS011;7883;52.554;13.364;2023-02-25T08:49:29;2.75;;;1.10;;
15563;SDS011;7883;52.554;13.364;2023-02-25T08:51:55;2.42;;;0.93;;
15563;SDS011;7883;52.554;13.364;2023-02-25T08:54:22;1.55;;;0.77;;
15563;SDS011;7883;52.554;13.364;2023-02-25T08:56:49;0.90;;;0.57;;
15563;SDS011;7883;52.554;13.364;2023-02-25T08:59:19;0.80;;;0.47;;
15563;SDS011;7883;52.554;13.364;2023-02-25T09:01:46;4.72;;;2.30;;
15563;SDS011;7883;52.554;13.364;2023-02-25T09:04:16;10.15;;;5.22;;
15563;SDS011;7883;52.554;13.364;2023-02-25T09:06:45;6.82;;;2.53;;
15563;SDS011;7883;52.554;13.364;2023-02-25T09:09:13;2.28;;;1.10;;
15563;SDS011;7883;52.554;13.364;2023-02-25T09:11:40;1.88;;;1.17;;
15563;SDS011;7883;52.554;13.364;2023-02-25T09:14:07;0.77;;;0.65;;
15563;SDS011;7883;52.554;13.364;2023-02-25T09:16:37;1.58;;;0.70;;
15563;SDS011;7883;52.554;13.364;2023-02-25T09:19:04;0.75;;;0.60;;
15563;SDS011;7883;52.554;13.364;2023-02-25T09:21:31;2.08;;;1.00;;
15563;SDS011;7883;52.554;13.364;2023-02-25T09:24:00;1.67;;;0.60;;
15563;SDS011;7883;52.554;13.364;2023-02-25T09:26:27;0.63;;;0.50;;
15563;SDS011;7883;52.554;13.364;2023-02-25T09:28:53;0.43;;;0.30;;
15563;SDS011;7883;52.554;13.364;2023-02-25T09:31:20;0.40;;;0.40;;
15563;SDS011;7883;52.554;13.364;2023-02-25T09:33:50;0.93;;;0.52;;
15563;SDS011;7883;52.554;13.364;2023-02-25T09:36:19;0.57;;;0.45;;
15563;SDS011;7883;52.554;13.364;2023-02-25T09:38:47;1.50;;;0.30;;
15563;SDS011;7883;52.554;13.364;2023-02-25T09:41:18;0.63;;;0.43;;
15563;SDS011;7883;52.554;13.364;2023-02-25T09:43:55;1.75;;;0.47;;
15563;SDS011;7883;52.554;13.364;2023-02-25T09:46:27;1.48;;;0.43;;
15563;SDS011;7883;52.554;13.364;2023-02-25T09:48:58;0.40;;;0.40;;
15563;SDS011;7883;52.554;13.364;2023-02-25T09:51:30;0.50;;;0.50;;
15563;SDS011;7883;52.554;13.364;2023-02-25T09:54:04;2.03;;;0.60;;
15563;SDS011;7883;52.554;13.364;2023-02-25T09:56:40;0.95;;;0.40;;
15563;SDS011;7883;52.554;13.364;2023-02-25T09:59:10;1.45;;;0.60;;
15563;SDS011;7883;52.554;13.364;2023-02-25T10:01:41;0.55;;;0.50;;
15563;SDS011;7883;52.554;13.364;2023-02-25T10:04:21;0.50;;;0.40;;
15563;SDS011;7883;52.554;13.364;2023-02-25T10:06:53;0.90;;;0.60;;
15563;SDS011;7883;52.554;13.364;2023-02-25T10:09:22;0.52;;;0.35;;
15563;SDS011;7883;52.554;13.364;2023-02-25T10:11:58;3.70;;;1.88;;
15563;SDS011;7883;52.554;13.364;2023-02-25T10:14:44;0.40;;;0.40;;
15563;SDS011;7883;52.554;13.364;2023-02-25T10:17:19;0.80;;;0.60;;
15563;SDS011;7883;52.554;13.364;2023-02-25T10:20:13;0.65;;;0.47;;
15563;SDS011;7883;52.554;13.364;2023-02-25T10:22:56;2.15;;;0.50;;
15563;SDS011;7883;52.554;13.364;2023-02-25T10:25:32;0.30;;;0.30;;
15563;SDS011;7883;52.554;13.364;2023-02-25T10:28:05;0.20;;;0.20;;
15563;SDS011;7883;52.554;13.364;2023-02-25T10:30:42;2.63;;;1.58;;
15563;SDS011;7883;52.554;13.364;2023-02-25T10:33:17;1.63;;;0.88;;
15563;SDS011;7883;52.554;13.364;2023-02-25T10:35:47;0.40;;;0.40;;
15563;SDS011;7883;52.554;13.364;2023-02-25T10:38:18;0.63;;;0.40;;
15563;SDS011;7883;52.554;13.364;2023-02-25T10:40:45;0.55;;;0.40;;
15563;SDS011;7883;52.554;13.364;2023-02-25T10:43:17;0.47;;;0.47;;
15563;SDS011;7883;52.554;13.364;2023-02-25T10:45:46;0.98;;;0.68;;
15563;SDS011;7883;52.554;13.364;2023-02-25T10:48:18;0.65;;;0.52;;
15563;SDS011;7883;52.554;13.364;2023-02-25T10:50:59;0.50;;;0.50;;
15563;SDS011;7883;52.554;13.364;2023-02-25T10:53:30;1.02;;;0.63;;
15563;SDS011;7883;52.554;13.364;2023-02-25T10:55:58;0.75;;;0.40;;
15563;SDS011;7883;52.554;13.364;2023-02-25T10:58:27;0.50;;;0.40;;
15563;SDS011;7883;52.554;13.364;2023-02-25T11:01:00;0.47;;;0.47;;
15563;SDS011;7883;52.554;13.364;2023-02-25T11:03:31;1.77;;;0.90;;
15563;SDS011;7883;52.554;13.364;2023-02-25T11:06:16;2.53;;;1.60;;
15563;SDS011;7883;52.554;13.364;2023-02-25T11:08:44;0.40;;;0.40;;
15563;SDS011;7883;52.554;13.364;2023-02-25T11:11:16;0.55;;;0.40;;
15563;SDS011;7883;52.554;13.364;2023-02-25T11:13:52;0.70;;;0.60;;
15563;SDS011;7883;52.554;13.364;2023-02-25T11:16:20;11.07;;;5.55;;
15563;SDS011;7883;52.554;13.364;2023-02-25T11:18:50;13.98;;;6.95;;
15563;SDS011;7883;52.554;13.364;2023-02-25T11:21:33;1.13;;;0.80;;
15563;SDS011;7883;52.554;13.364;2023-02-25T11:24:04;0.88;;;0.50;;
15563;SDS011;7883;52.554;13.364;2023-02-25T11:26:35;0.65;;;0.38;;
15563;SDS011;7883;52.554;13.364;2023-02-25T11:29:07;0.98;;;0.68;;
15563;SDS011;7883;52.554;13.364;2023-02-25T11:31:38;2.05;;;0.60;;
15563;SDS011;7883;52.554;13.364;2023-02-25T11:34:11;0.35;;;0.20;;
15563;SDS011;7883;52.554;13.364;2023-02-25T11:36:42;1.88;;;0.50;;
15563;SDS011;7883;52.554;13.364;2023-02-25T11:39:14;0.70;;;0.50;;
15563;SDS011;7883;52.554;13.364;2023-02-25T11:41:43;0.98;;;0.50;;
15563;SDS011;7883;52.554;13.364;2023-02-25T11:44:16;0.80;;;0.50;;
15563;SDS011;7883;52.554;13.364;2023-02-25T11:46:59;1.65;;;0.50;;
15563;SDS011;7883;52.554;13.364;2023-02-25T11:49:33;1.92;;;0.68;;
15563;SDS011;7883;52.554;13.364;2023-02-25T11:52:26;0.52;;;0.50;;
15563;SDS011;7883;52.554;13.364;2023-02-25T11:55:03;0.68;;;0.47;;
15563;SDS011;7883;52.554;13.364;2023-02-25T11:57:45;0.30;;;0.22;;
15563;SDS011;7883;52.554;13.364;2023-02-25T12:00:29;1.23;;;0.52;;
15563;SDS011;7883;52.554;13.364;2023-02-25T12:03:09;0.80;;;0.70;;
15563;SDS011;7883;52.554;13.364;2023-02-25T12:05:56;0.88;;;0.50;;
15563;SDS011;7883;52.554;13.364;2023-02-25T12:14:49;1.70;;;0.68;;
15563;SDS011;7883;52.554;13.364;2023-02-25T12:17:52;1.75;;;0.75;;
15563;SDS011;7883;52.554;13.364;2023-02-25T12:24:05;1.13;;;0.68;;
15563;SDS011;7883;52.554;13.364;2023-02-25T12:32:50;3.80;;;2.22;;
15563;SDS011;7883;52.554;13.364;2023-02-25T12:35:34;0.82;;;0.70;;
15563;SDS011;7883;52.554;13.364;2023-02-25T12:41:36;2.47;;;0.75;;
15563;SDS011;7883;52.554;13.364;2023-02-25T12:44:32;4.70;;;0.70;;
15563;SDS011;7883;52.554;13.364;2023-02-25T12:47:24;1.60;;;0.80;;
15563;SDS011;7883;52.554;13.364;2023-02-25T12:52:59;1.20;;;0.52;;
15563;SDS011;7883;52.554;13.364;2023-02-25T12:58:57;1.65;;;0.80;;
15563;SDS011;7883;52.554;13.364;2023-02-25T13:01:50;1.25;;;0.60;;
15563;SDS011;7883;52.554;13.364;2023-02-25T13:04:42;1.88;;;0.60;;
15563;SDS011;7883;52.554;13.364;2023-02-25T13:07:42;1.95;;;0.50;;
15563;SDS011;7883;52.554;13.364;2023-02-25T13:10:27;0.88;;;0.55;;
15563;SDS011;7883;52.554;13.364;2023-02-25T13:13:18;1.23;;;0.57;;
15563;SDS011;7883;52.554;13.364;2023-02-25T13:16:02;2.08;;;0.70;;
15563;SDS011;7883;52.554;13.364;2023-02-25T13:18:42;3.22;;;1.77;;
15563;SDS011;7883;52.554;13.364;2023-02-25T13:21:29;3.60;;;2.05;;
15563;SDS011;7883;52.554;13.364;2023-02-25T13:33:04;1.17;;;0.98;;
15563;SDS011;7883;52.554;13.364;2023-02-25T13:35:51;0.73;;;0.60;;
15563;SDS011;7883;52.554;13.364;2023-02-25T13:38:26;2.35;;;1.13;;
15563;SDS011;7883;52.554;13.364;2023-02-25T13:41:06;1.10;;;0.82;;
15563;SDS011;7883;52.554;13.364;2023-02-25T13:43:57;1.55;;;0.82;;
15563;SDS011;7883;52.554;13.364;2023-02-25T13:46:51;1.35;;;0.95;;
15563;SDS011;7883;52.554;13.364;2023-02-25T13:52:29;1.20;;;0.88;;
15563;SDS011;7883;52.554;13.364;2023-02-25T13:55:20;1.23;;;0.90;;
15563;SDS011;7883;52.554;13.364;2023-02-25T13:58:07;1.77;;;0.77;;
15563;SDS011;7883;52.554;13.364;2023-02-25T14:00:53;2.67;;;0.90;;
15563;SDS011;7883;52.554;13.364;2023-02-25T14:03:47;1.00;;;0.68;;
15563;SDS011;7883;52.554;13.364;2023-02-25T14:06:46;2.08;;;0.98;;
15563;SDS011;7883;52.554;13.364;2023-02-25T14:09:41;2.03;;;0.82;;
15563;SDS011;7883;52.554;13.364;2023-02-25T14:12:22;3.05;;;0.85;;
15563;SDS011;7883;52.554;13.364;2023-02-25T14:15:15;1.33;;;0.70;;
15563;SDS011;7883;52.554;13.364;2023-02-25T14:18:04;1.10;;;0.75;;
15563;SDS011;7883;52.554;13.364;2023-02-25T14:20:42;2.15;;;0.82;;
15563;SDS011;7883;52.554;13.364;2023-02-25T14:23:21;2.72;;;1.10;;
15563;SDS011;7883;52.554;13.364;2023-02-25T14:25:58;1.58;;;0.80;;
15563;SDS011;7883;52.554;13.364;2023-02-25T14:28:41;3.00;;;1.40;;
15563;SDS011;7883;52.554;13.364;2023-02-25T14:31:14;3.15;;;1.17;;
15563;SDS011;7883;52.554;13.364;2023-02-25T14:34:03;0.85;;;0.75;;
15563;SDS011;7883;52.554;13.364;2023-02-25T14:36:52;1.48;;;0.80;;
15563;SDS011;7883;52.554;13.364;2023-02-25T14:39:31;1.83;;;0.88;;
15563;SDS011;7883;52.554;13.364;2023-02-25T14:42:10;2.65;;;1.20;;
15563;SDS011;7883;52.554;13.364;2023-02-25T14:44:49;3.30;;;0.90;;
15563;SDS011;7883;52.554;13.364;2023-02-25T14:47:28;2.05;;;0.82;;
15563;SDS011;7883;52.554;13.364;2023-02-25T14:50:02;3.63;;;1.27;;
15563;SDS011;7883;52.554;13.364;2023-02-25T14:55:29;3.67;;;1.00;;
15563;SDS011;7883;52.554;13.364;2023-02-25T15:01:23;3.45;;;1.27;;
15563;SDS011;7883;52.554;13.364;2023-02-25T15:04:29;1.10;;;0.60;;
15563;SDS011;7883;52.554;13.364;2023-02-25T15:10:06;1.65;;;0.50;;
15563;SDS011;7883;52.554;13.364;2023-02-25T15:12:54;0.80;;;0.55;;
15563;SDS011;7883;52.554;13.364;2023-02-25T15:15:57;0.80;;;0.50;;
15563;SDS011;7883;52.554;13.364;2023-02-25T15:24:53;0.60;;;0.50;;
15563;SDS011;7883;52.554;13.364;2023-02-25T15:28:01;3.45;;;0.85;;
15563;SDS011;7883;52.554;13.364;2023-02-25T15:33:32;2.70;;;0.93;;
15563;SDS011;7883;52.554;13.364;2023-02-25T15:36:01;2.05;;;0.70;;
15563;SDS011;7883;52.554;13.364;2023-02-25T15:38:46;3.67;;;1.42;;
15563;SDS011;7883;52.554;13.364;2023-02-25T15:42:57;3.47;;;0.90;;
15563;SDS011;7883;52.554;13.364;2023-02-25T15:45:31;0.77;;;0.63;;
15563;SDS011;7883;52.554;13.364;2023-02-25T15:48:21;2.53;;;0.90;;
15563;SDS011;7883;52.554;13.364;2023-02-25T15:51:00;0.93;;;0.57;;
15563;SDS011;7883;52.554;13.364;2023-02-25T15:53:40;1.90;;;0.50;;
15563;SDS011;7883;52.554;13.364;2023-02-25T16:02:31;2.05;;;0.93;;
15563;SDS011;7883;52.554;13.364;2023-02-25T16:05:17;1.83;;;0.65;;
15563;SDS011;7883;52.554;13.364;2023-02-25T16:07:49;1.42;;;0.70;;
15563;SDS011;7883;52.554;13.364;2023-02-25T16:10:28;1.75;;;0.80;;
15563;SDS011;7883;52.554;13.364;2023-02-25T16:13:00;1.98;;;0.82;;
15563;SDS011;7883;52.554;13.364;2023-02-25T16:15:31;1.33;;;0.68;;
15563;SDS011;7883;52.554;13.364;2023-02-25T16:18:04;1.75;;;0.77;;
15563;SDS011;7883;52.554;13.364;2023-02-25T16:20:40;2.67;;;1.05;;
15563;SDS011;7883;52.554;13.364;2023-02-25T16:23:12;2.85;;;1.17;;
15563;SDS011;7883;52.554;13.364;2023-02-25T16:25:41;1.60;;;0.90;;
15563;SDS011;7883;52.554;13.364;2023-02-25T16:28:19;2.25;;;1.10;;
15563;SDS011;7883;52.554;13.364;2023-02-25T16:30:55;10.05;;;4.15;;